KMVL/MVL METAR and TAF weather

Enter ICAO airport designator
Station Type Date Time Source
KMVL METAR 2020/01/22 20:54 UTC NOAA

KMVL 222054Z AUTO 18004KT 10SM CLR 01/M07 A3028 RMK AO2 SLP266 T00061067 56005


Station Type Date Time Source
KMVL Decoded METAR 2020/01/22 20:54 UTC NOAA

MORRISVILLE STOWE STATE AIRPORT , VT, United States (KMVL) 44-32N 72-37W 223M
Jan 22, 2020 - 03:54 PM EST / 2020.01.22 2054 UTC
Wind: from the S (180 degrees) at 5 MPH (4 KT):0
Visibility: 10 mile(s):0
Sky conditions: clear
Temperature: 33.1 F (0.6 C)
Windchill: 28 F (-2 C):1
Dew Point: 19.9 F (-6.7 C)
Relative Humidity: 58%
Pressure (altimeter): 30.28 in. Hg (1025 hPa)
Pressure tendency: 0.01 inches (0.5 hPa) lower than three hours ago
ob: KMVL 222054Z AUTO 18004KT 10SM CLR 01/M07 A3028 RMK AO2 SLP266 T00061067 56005
cycle: 21

Station Type Date Time Source
KMVL TAF UTC NOAA

Error!

Example: see airport list